Bei Facebook empfehlenBei Twitter postenGoogle plusPinterest

Das Wetter im Erzgebirge am 27.11.2015

Wetter und Klima am 27.11.2015 Holzhau im Erzgebirge (630m ü.NN)
Letzte gemessene Temperatur und Uhrzeit der Messung23:45:00 Uhr-4.60 °C
Temperatur (Maximum / Höchstwert) und Uhrzeit der Messung13:45:00 Uhr3.60 °C
Temperatur (Minimum / Tiefstwert) und Uhrzeit der Messung23:45:00-4.60 °C
Errechneter Absolutwert der Temperaturschwankungen zwischen Tmin und Tmax des Tages8.20 K
Errechnete Tagesmitteltemperatur-0.90521 °C
Gesamt - Niederschlag des Tages (in flüssiger Form)0.52 Liter / m²
Luftdruck (Maximum / Höchstwert) und Zeitpunkt der Messung02:30:00 Uhr1015.60 hPa
Luftdruck (Minimum / Tiefstwert) und Zeitpunkt der Messung23:45:00 Uhr1008.10 hPa
Errechneter Absolutwert der Luftdruckschwankungen des Tages7.50 hPa
Höchste gemessene Windgeschwindigkeit und Uhrzeit der Messung13:15:00 Uhr2.88 km/h
Errechnete Windhäufigkeit in Relation zu den Messwerten des Tages3.12500 %
Niedrigste Windkühle (Windchill) und Zeitpunkt der Messung23:45:00 Uhr-4.60 °C
Taupunkt (Maximum / Höchstwert) und Uhrzeit der Messung13:45:00 Uhr2.60 °C
Taupunkt (Minimum / Tiefstwert) und Uhrzeit der Messung20:30:00-5.90 °C
Anzahl der automatisch eingelesenen Messwerte 96

Detaillierte Wetter- und Klima- Messwerte für den 27.11.2015 in Holzhau im Erzgebirge (630m ü.NN)
ZeitTemperaturLuftdruckRel. LuftfeuchteWindWindrichtungWindchillTaupunktNiederschlag l/m²
23:45:00-4.60 °C1008.10 hPa92.00 %1.44 km/hSSO-4.60 °C-5.80 °C0.52
23:30:00-4.50 °C1008.10 hPa92.00 %-5.70 °C0.52
23:15:00-4.40 °C1008.30 hPa92.00 %-5.60 °C0.52
23:00:00-4.10 °C1008.40 hPa92.00 %-5.30 °C0.52
22:45:00-4.10 °C1008.30 hPa92.00 %-5.30 °C0.52
22:30:00-3.90 °C1008.50 hPa92.00 %-5.10 °C0.52
22:15:00-3.80 °C1008.80 hPa92.00 %-5.00 °C0.52
22:00:00-3.80 °C1009.00 hPa92.00 %-5.00 °C0.52
21:45:00-3.70 °C1009.00 hPa92.00 %-4.90 °C0.52
21:30:00-3.60 °C1009.40 hPa92.00 %-4.80 °C0.52
21:15:00-3.60 °C1009.70 hPa92.00 %-4.80 °C0.52
21:00:00-3.70 °C1009.80 hPa92.00 %-4.90 °C0.52
20:45:00-4.10 °C1010.20 hPa92.00 %-5.30 °C0.52
20:30:00-4.50 °C1010.40 hPa91.00 %-5.90 °C0.52
20:15:00-4.10 °C1010.40 hPa91.00 %-5.50 °C0.52
20:00:00-3.80 °C1010.50 hPa91.00 %-5.20 °C0.52
19:45:00-3.90 °C1010.70 hPa91.00 %-5.30 °C0.52
19:30:00-3.90 °C1010.90 hPa91.00 %-5.30 °C0.52
19:15:00-3.70 °C1011.00 hPa91.00 %-5.10 °C0.52
19:00:00-3.80 °C1011.40 hPa91.00 %-5.20 °C0.52
18:45:00-3.90 °C1011.30 hPa91.00 %-5.30 °C0.52
18:30:00-3.80 °C1011.30 hPa91.00 %-5.20 °C0.52
18:15:00-3.60 °C1011.40 hPa90.00 %-5.20 °C0.52
18:00:00-3.40 °C1011.30 hPa90.00 %-5.00 °C0.52
17:45:00-3.10 °C1011.50 hPa90.00 %-4.70 °C0.52
17:30:00-2.70 °C1011.60 hPa90.00 %-4.30 °C0.52
17:15:00-2.40 °C1011.60 hPa90.00 %-4.00 °C0.52
17:00:00-1.90 °C1011.70 hPa90.00 %-3.50 °C0.52
16:45:00-1.40 °C1011.90 hPa90.00 %-3.00 °C0.52
16:30:00-0.90 °C1012.10 hPa90.00 %-2.50 °C0.52
16:15:00-0.40 °C1012.10 hPa90.00 %-2.00 °C0.52
16:00:000.10 °C1012.30 hPa91.00 %-1.20 °C0.52
15:45:000.50 °C1012.50 hPa91.00 %-0.80 °C0.52
15:30:000.80 °C1012.70 hPa91.00 %-0.50 °C0.52
15:15:001.10 °C1012.90 hPa90.00 %-0.40 °C0.52
15:00:001.20 °C1013.00 hPa90.00 %-0.30 °C0.52
14:45:001.30 °C1013.10 hPa90.00 %-0.20 °C0.52
14:30:002.10 °C1013.40 hPa90.00 %0.60 °C0.52
14:15:002.80 °C1013.50 hPa91.00 %1.50 °C0.52
14:00:003.30 °C1013.70 hPa92.00 %2.10 °C0.52
13:45:003.60 °C1013.80 hPa93.00 %2.60 °C0.52
13:30:003.60 °C1013.90 hPa93.00 %2.60 °C0.52
13:15:003.50 °C1013.80 hPa94.00 %2.88 km/hSSW3.50 °C2.60 °C0.52
13:00:002.40 °C1014.00 hPa94.00 %1.50 °C0.52
12:45:001.60 °C1014.00 hPa94.00 %0.70 °C0.52
12:30:001.70 °C1014.00 hPa94.00 %0.80 °C0.52
12:15:001.90 °C1014.10 hPa95.00 %1.20 °C0.52
12:00:002.10 °C1014.30 hPa95.00 %1.40 °C0.52
11:45:002.10 °C1014.20 hPa95.00 %1.40 °C0.52
11:30:002.20 °C1014.20 hPa95.00 %1.50 °C0.52
11:15:001.90 °C1014.30 hPa95.00 %1.20 °C0.52
11:00:001.90 °C1014.60 hPa95.00 %1.20 °C 
10:45:001.50 °C1014.70 hPa95.00 %0.80 °C 
10:30:001.20 °C1015.00 hPa95.00 %0.50 °C 
10:15:000.80 °C1015.00 hPa95.00 %0.10 °C 
10:00:000.30 °C1015.10 hPa96.00 %-0.30 °C 
09:45:000.00 °C1015.10 hPa96.00 %-0.60 °C 
09:30:00-0.20 °C1015.20 hPa95.00 %-1.00 °C 
09:15:00-0.70 °C1015.20 hPa95.00 %-1.50 °C 
09:00:00-1.10 °C1015.30 hPa95.00 %-1.90 °C 
08:45:00-1.30 °C1015.20 hPa95.00 %-2.10 °C 
08:30:00-1.50 °C1015.30 hPa95.00 %-2.30 °C 
08:15:00-1.40 °C1015.30 hPa95.00 %-2.20 °C 
08:00:00-1.20 °C1015.10 hPa95.00 %-2.00 °C 
07:45:00-0.80 °C1015.00 hPa95.00 %-1.60 °C 
07:30:00-0.70 °C1015.00 hPa95.00 %-1.50 °C 
07:15:00-0.60 °C1015.00 hPa95.00 %-1.40 °C 
07:00:00-0.40 °C1014.90 hPa95.00 %-1.20 °C 
06:45:00-0.40 °C1015.10 hPa95.00 %-1.20 °C 
06:30:00-0.40 °C1015.20 hPa95.00 %-1.20 °C 
06:15:00-0.40 °C1015.00 hPa95.00 %-1.20 °C 
06:00:00-0.40 °C1015.00 hPa95.00 %-1.20 °C 
05:45:00-0.40 °C1015.10 hPa95.00 %-1.20 °C 
05:30:00-0.50 °C1015.00 hPa95.00 %-1.30 °C 
05:15:00-0.50 °C1015.10 hPa95.00 %-1.30 °C 
05:00:00-0.60 °C1015.10 hPa95.00 %-1.40 °C 
04:45:00-0.60 °C1015.40 hPa95.00 %-1.40 °C 
04:30:00-0.60 °C1015.40 hPa95.00 %-1.40 °C 
04:15:00-0.70 °C1015.10 hPa95.00 %-1.50 °C 
04:00:00-0.80 °C1015.30 hPa95.00 %-1.60 °C 
03:45:00-1.10 °C1015.30 hPa95.00 %-1.90 °C 
03:30:00-0.90 °C1015.30 hPa95.00 %-1.70 °C 
03:15:00-0.70 °C1015.40 hPa95.00 %-1.50 °C 
03:00:00-0.60 °C1015.50 hPa95.00 %-1.40 °C 
02:45:00-0.60 °C1015.40 hPa95.00 %-1.40 °C 
02:30:00-0.60 °C1015.60 hPa95.00 %-1.40 °C 
02:15:00-0.70 °C1015.50 hPa95.00 %-1.50 °C 
02:00:00-0.70 °C1015.40 hPa95.00 %-1.50 °C 
01:45:00-0.70 °C1015.40 hPa95.00 %-1.50 °C 
01:30:00-0.50 °C1015.20 hPa95.00 %-1.30 °C 
01:15:00-0.40 °C1015.50 hPa95.00 %-1.20 °C 
01:00:00-0.20 °C1015.20 hPa95.00 %-1.00 °C 
00:45:00-0.20 °C1015.20 hPa95.00 %2.88 km/hW-0.20 °C-1.00 °C 
00:30:00-0.40 °C1015.10 hPa95.00 %-1.20 °C 
00:15:00-0.40 °C1015.00 hPa95.00 %-1.20 °C 
00:00:00-0.40 °C1014.90 hPa95.00 %-1.20 °C 

Permanenter Link zu dieser Seite: Wetter im Erzgebirge am 27.11.2015
Performance-Info: Die Erstellung der Seite / Statistik(en) / Tabelle(n) erforderte 5 Datenbankserver-Abfrage(n) und dauerte 98 Millisekunden. (Dieser Messwert ist von der Gesamt-Auslastung des Servers abhängig.)
Erzgebirge - Wetter | Erzgebirge - Wetter (Mobilgeräte) | Komplette Klimadatenbank